createdAt,value
2023-01-07T00:01:33.900Z,27.00
2023-01-07T00:04:02.837Z,21.17
2023-01-07T00:06:33.550Z,20.00
2023-01-07T00:09:01.904Z,16.80
2023-01-07T00:11:38.546Z,17.42
2023-01-07T00:14:07.971Z,13.87
2023-01-07T00:16:36.847Z,10.83
2023-01-07T00:19:05.888Z,7.95
2023-01-07T00:21:33.632Z,8.57
2023-01-07T00:24:04.942Z,6.70
2023-01-07T00:26:34.957Z,6.40
2023-01-07T00:29:03.690Z,6.63
2023-01-07T00:31:36.526Z,6.37
2023-01-07T00:34:04.566Z,9.73
2023-01-07T00:36:35.131Z,22.13
2023-01-07T00:39:10.051Z,18.73
2023-01-07T00:41:38.144Z,19.27
2023-01-07T00:44:07.028Z,22.37
2023-01-07T00:46:34.431Z,24.27
2023-01-07T00:49:02.459Z,20.50
2023-01-07T00:51:29.685Z,16.93
2023-01-07T00:53:57.012Z,11.30
2023-01-07T00:56:24.745Z,14.20
2023-01-07T00:58:52.121Z,12.23
2023-01-07T01:01:19.740Z,16.57
2023-01-07T01:03:47.595Z,25.00
2023-01-07T01:06:16.330Z,26.73
2023-01-07T01:08:45.341Z,18.95
2023-01-07T01:13:42.401Z,24.60
2023-01-07T01:16:15.551Z,27.98
2023-01-07T01:18:44.125Z,28.00
2023-01-07T01:21:13.547Z,22.77
2023-01-07T01:23:41.672Z,21.70
2023-01-07T01:26:12.788Z,24.75
2023-01-07T01:28:40.955Z,26.50
2023-01-07T01:31:09.500Z,22.87
2023-01-07T01:33:38.867Z,20.77
2023-01-07T01:36:10.294Z,17.53
2023-01-07T01:38:38.614Z,14.30
2023-01-07T01:41:07.103Z,9.43
2023-01-07T01:43:40.106Z,9.25
2023-01-07T01:46:25.406Z,10.13
2023-01-07T01:49:02.853Z,10.93
2023-01-07T01:51:34.927Z,10.47
2023-01-07T01:54:07.084Z,11.53
2023-01-07T01:56:39.166Z,9.23
2023-01-07T01:59:10.795Z,10.13
2023-01-07T02:01:38.896Z,11.73
2023-01-07T02:04:12.949Z,19.45
2023-01-07T02:07:05.571Z,21.30
2023-01-07T02:09:33.886Z,13.73
2023-01-07T02:12:07.697Z,11.20
2023-01-07T02:14:44.990Z,10.43
2023-01-07T02:17:45.024Z,8.45
2023-01-07T02:20:40.341Z,10.17
2023-01-07T02:23:18.054Z,7.90
2023-01-07T02:25:57.725Z,6.62
2023-01-07T02:28:28.308Z,5.78
2023-01-07T02:31:04.998Z,5.82
2023-01-07T02:33:54.364Z,10.93
2023-01-07T02:39:22.144Z,10.30
2023-01-07T02:41:58.675Z,11.85
2023-01-07T02:44:41.643Z,13.77
2023-01-07T02:47:51.165Z,12.02
2023-01-07T02:50:19.602Z,11.05
2023-01-07T02:52:47.085Z,11.80
2023-01-07T02:55:19.283Z,10.88
2023-01-07T02:58:05.156Z,20.77
2023-01-07T03:01:05.682Z,15.52
2023-01-07T03:03:48.728Z,25.95
2023-01-07T03:06:43.631Z,18.85
2023-01-07T03:09:20.860Z,22.83
2023-01-07T03:11:54.235Z,22.60
2023-01-07T03:14:32.519Z,21.30
2023-01-07T03:17:05.959Z,14.15
2023-01-07T03:19:36.553Z,12.68
2023-01-07T03:22:09.116Z,24.17
2023-01-07T03:24:38.980Z,27.13
2023-01-07T03:27:08.240Z,28.17
2023-01-07T03:29:38.245Z,22.50
2023-01-07T03:32:24.444Z,21.35
2023-01-07T03:34:53.645Z,18.30
2023-01-07T03:37:23.711Z,16.30
2023-01-07T03:39:52.721Z,15.90
2023-01-07T03:42:42.289Z,22.15
2023-01-07T03:45:16.119Z,25.92
2023-01-07T03:47:50.265Z,24.98
2023-01-07T03:50:20.055Z,25.70
2023-01-07T03:52:51.301Z,20.58
2023-01-07T03:55:19.228Z,18.87
2023-01-07T03:57:47.102Z,19.42
2023-01-07T04:00:15.524Z,17.42
2023-01-07T04:02:45.021Z,13.25
2023-01-07T04:05:15.447Z,10.32
2023-01-07T04:07:43.046Z,12.13
2023-01-07T04:10:11.602Z,19.05
2023-01-07T04:12:38.983Z,24.48
2023-01-07T04:15:07.199Z,19.27
2023-01-07T04:17:35.049Z,13.05
2023-01-07T04:20:02.434Z,11.98
2023-01-07T04:22:30.725Z,17.55
2023-01-07T04:24:58.669Z,28.55
2023-01-07T04:27:26.183Z,32.83
2023-01-07T04:29:53.540Z,36.22
2023-01-07T04:32:21.854Z,32.90
2023-01-07T04:34:49.825Z,32.03
2023-01-07T04:37:17.556Z,25.12
2023-01-07T04:39:48.973Z,18.83
2023-01-07T04:42:17.027Z,12.82
2023-01-07T04:44:44.697Z,12.63
2023-01-07T04:47:12.285Z,17.00
2023-01-07T04:49:39.926Z,30.85
2023-01-07T04:52:09.189Z,34.58
2023-01-07T04:54:36.762Z,31.55
2023-01-07T04:57:04.357Z,36.97
2023-01-07T04:59:32.649Z,44.58
2023-01-07T05:02:00.810Z,41.40
2023-01-07T05:04:28.462Z,34.60
2023-01-07T05:06:56.109Z,29.25
2023-01-07T05:09:24.528Z,28.10
2023-01-07T05:11:52.237Z,28.90
2023-01-07T05:14:21.252Z,31.42
2023-01-07T05:16:51.187Z,19.90
2023-01-07T05:19:19.501Z,20.20
2023-01-07T05:21:48.272Z,19.73
2023-01-07T05:24:16.025Z,16.17
2023-01-07T05:26:43.975Z,32.97
2023-01-07T05:31:42.592Z,33.40
2023-01-07T05:34:10.252Z,23.80
2023-01-07T05:36:38.167Z,18.40
2023-01-07T05:39:06.000Z,21.30
2023-01-07T05:41:33.755Z,22.48
2023-01-07T05:44:02.588Z,21.23
2023-01-07T05:46:30.736Z,18.40
2023-01-07T05:48:58.069Z,16.37
2023-01-07T05:51:26.893Z,17.25
2023-01-07T05:53:55.191Z,14.75
2023-01-07T05:56:22.634Z,23.05
2023-01-07T05:58:50.272Z,23.58
2023-01-07T06:01:17.966Z,22.42
2023-01-07T06:03:45.862Z,12.25
2023-01-07T06:06:13.295Z,8.02
2023-01-07T06:08:40.613Z,6.93
2023-01-07T06:11:08.995Z,6.93
2023-01-07T06:13:36.896Z,30.23
2023-01-07T06:16:09.126Z,43.45
2023-01-07T06:18:37.114Z,44.97
2023-01-07T06:21:04.593Z,61.15
2023-01-07T06:23:31.853Z,61.78
2023-01-07T06:25:59.591Z,61.33
2023-01-07T06:28:27.419Z,63.80
2023-01-07T06:30:54.818Z,61.83
2023-01-07T06:33:22.868Z,62.13
2023-01-07T06:35:52.282Z,69.45
2023-01-07T06:38:19.783Z,61.10
2023-01-07T06:40:47.645Z,58.80
2023-01-07T06:43:15.004Z,65.43
2023-01-07T06:45:42.336Z,64.20
2023-01-07T06:48:10.171Z,67.25
2023-01-07T06:50:37.870Z,71.10
2023-01-07T06:53:05.745Z,60.65
2023-01-07T06:55:33.799Z,67.60
2023-01-07T06:58:01.146Z,64.40
2023-01-07T07:00:29.004Z,73.20
2023-01-07T07:02:57.706Z,80.35
2023-01-07T07:05:29.685Z,88.05
2023-01-07T07:07:57.595Z,98.47
2023-01-07T07:10:24.970Z,112.47
2023-01-07T07:12:53.100Z,81.82
2023-01-07T07:15:21.837Z,76.03
2023-01-07T07:17:49.328Z,82.05
2023-01-07T07:20:16.898Z,73.70
2023-01-07T07:22:48.861Z,73.60
2023-01-07T07:25:16.292Z,64.60
2023-01-07T07:27:47.093Z,49.57
2023-01-07T07:30:15.810Z,51.57
2023-01-07T07:32:43.485Z,39.63
2023-01-07T07:35:12.190Z,27.90
2023-01-07T07:40:09.325Z,20.40
2023-01-07T07:43:09.610Z,17.23
2023-01-07T07:45:26.748Z,13.53
2023-01-07T07:47:54.821Z,13.47
2023-01-07T07:50:22.463Z,8.90
2023-01-07T07:52:50.110Z,11.47
2023-01-07T07:55:20.477Z,30.67
2023-01-07T07:57:55.563Z,46.20
2023-01-07T08:00:23.716Z,55.38
2023-01-07T08:02:51.413Z,55.88
2023-01-07T08:05:18.863Z,40.27
2023-01-07T08:07:46.540Z,27.43
2023-01-07T08:10:14.397Z,28.93
2023-01-07T08:12:45.060Z,10.67
2023-01-07T08:15:13.249Z,7.80
2023-01-07T08:17:41.039Z,9.60
2023-01-07T08:20:08.981Z,9.93
2023-01-07T08:22:36.248Z,10.40
2023-01-07T08:25:04.115Z,10.07
2023-01-07T08:27:31.442Z,14.73
2023-01-07T08:29:58.809Z,46.90
2023-01-07T08:32:26.544Z,52.20
2023-01-07T08:34:53.932Z,45.93
2023-01-07T08:37:21.301Z,37.17
2023-01-07T08:39:48.971Z,45.80
2023-01-07T08:42:16.557Z,51.60
2023-01-07T08:44:44.140Z,49.97
2023-01-07T08:47:12.190Z,44.57
2023-01-07T08:49:39.555Z,66.00
2023-01-07T08:52:06.934Z,45.93
2023-01-07T08:54:34.698Z,42.67
2023-01-07T08:57:02.407Z,32.60
2023-01-07T08:59:30.115Z,35.63
2023-01-07T09:01:58.435Z,22.70
2023-01-07T09:04:26.171Z,16.75
2023-01-07T09:06:53.591Z,15.97
2023-01-07T09:09:22.350Z,17.67
2023-01-07T09:11:49.762Z,11.30
2023-01-07T09:14:17.099Z,9.93
2023-01-07T09:16:44.903Z,6.93
2023-01-07T09:19:12.295Z,7.73
2023-01-07T09:21:39.622Z,10.93
2023-01-07T09:24:07.644Z,10.20
2023-01-07T09:26:34.945Z,10.50
2023-01-07T09:29:02.609Z,12.60
2023-01-07T09:31:30.605Z,16.50
2023-01-07T09:33:58.086Z,21.27
2023-01-07T09:36:27.187Z,41.83
2023-01-07T09:38:54.912Z,30.30
2023-01-07T09:41:35.061Z,29.90
2023-01-07T09:44:31.438Z,30.20
2023-01-07T09:47:00.527Z,19.03
2023-01-07T09:49:32.974Z,21.17
2023-01-07T09:52:26.553Z,17.43
2023-01-07T09:55:03.248Z,27.63
2023-01-07T09:57:30.628Z,6.57
2023-01-07T09:59:58.219Z,5.47
2023-01-07T10:02:51.108Z,4.60
2023-01-07T10:06:16.404Z,26.57
2023-01-07T10:09:07.674Z,8.10
2023-01-07T10:11:55.428Z,10.60
2023-01-07T10:14:39.136Z,10.27
2023-01-07T10:17:22.145Z,7.47
2023-01-07T10:20:02.252Z,5.53
2023-01-07T10:23:02.775Z,15.60
2023-01-07T10:25:36.863Z,9.93
2023-01-07T10:28:11.220Z,3.63
2023-01-07T10:30:42.888Z,3.00
2023-01-07T10:33:20.369Z,5.07
2023-01-07T10:35:51.732Z,3.70
2023-01-07T10:38:21.090Z,6.27
2023-01-07T10:40:59.260Z,5.95
2023-01-07T10:43:51.825Z,5.78
2023-01-07T10:46:45.401Z,4.60
2023-01-07T10:49:47.503Z,4.83
2023-01-07T10:52:31.513Z,5.37
2023-01-07T10:55:25.529Z,6.20
2023-01-07T10:57:53.049Z,4.30
2023-01-07T11:00:21.163Z,9.67
2023-01-07T11:02:55.356Z,14.30
2023-01-07T11:05:25.505Z,7.57
2023-01-07T11:08:04.679Z,6.43
2023-01-07T11:10:37.000Z,9.70
2023-01-07T11:13:08.563Z,7.60
2023-01-07T11:15:41.290Z,7.17
2023-01-07T11:18:52.792Z,4.77
2023-01-07T11:21:42.940Z,4.70
2023-01-07T11:24:35.795Z,20.30
2023-01-07T11:27:17.134Z,18.73
2023-01-07T11:30:13.364Z,7.57
2023-01-07T11:32:41.525Z,26.87
2023-01-07T11:35:22.610Z,10.57
2023-01-07T11:37:50.908Z,7.47
2023-01-07T11:40:25.154Z,6.40
2023-01-07T11:43:02.990Z,7.23
2023-01-07T11:45:37.488Z,7.47
2023-01-07T11:48:05.210Z,7.73
2023-01-07T11:50:41.191Z,6.43
2023-01-07T11:53:14.983Z,9.47
2023-01-07T11:55:57.753Z,5.70
2023-01-07T11:58:31.109Z,5.53
2023-01-07T12:01:11.882Z,5.30
2023-01-07T12:03:43.534Z,6.20
2023-01-07T12:06:19.488Z,7.70
2023-01-07T12:08:55.213Z,5.63
2023-01-07T12:11:23.241Z,4.50
2023-01-07T12:13:55.526Z,4.03
2023-01-07T12:16:29.053Z,4.93
2023-01-07T12:19:45.489Z,4.00
2023-01-07T12:22:58.745Z,5.03
2023-01-07T12:25:40.955Z,5.23
2023-01-07T12:28:24.191Z,5.97
2023-01-07T12:31:07.155Z,4.10
2023-01-07T12:33:48.347Z,8.13
2023-01-07T12:36:45.689Z,5.53
2023-01-07T12:39:26.083Z,5.93
2023-01-07T12:42:06.873Z,7.03
2023-01-07T12:44:39.684Z,6.43
2023-01-07T12:47:32.379Z,7.13
2023-01-07T12:50:10.872Z,6.07
2023-01-07T12:53:04.597Z,4.93
2023-01-07T12:55:45.151Z,9.55
2023-01-07T12:58:25.794Z,17.27
2023-01-07T13:01:19.594Z,16.33
2023-01-07T13:03:54.793Z,10.98
2023-01-07T13:06:37.383Z,12.82
2023-01-07T13:09:23.082Z,7.32
2023-01-07T13:12:40.889Z,6.30
2023-01-07T13:15:10.575Z,7.57
2023-01-07T13:17:38.261Z,6.72
2023-01-07T13:20:11.737Z,8.82
2023-01-07T13:22:56.947Z,17.50
2023-01-07T13:25:48.987Z,19.30
2023-01-07T13:28:25.516Z,21.20
2023-01-07T13:30:59.021Z,15.38
2023-01-07T13:33:41.040Z,26.90
2023-01-07T13:36:29.082Z,27.60
2023-01-07T13:39:41.574Z,30.62
2023-01-07T13:42:37.225Z,19.27
2023-01-07T13:45:25.118Z,29.25
2023-01-07T13:47:55.743Z,57.25
2023-01-07T13:50:42.038Z,69.05
2023-01-07T13:53:15.913Z,51.53
2023-01-07T13:55:46.347Z,42.47
2023-01-07T13:58:29.397Z,71.90
2023-01-07T14:01:09.528Z,54.57
2023-01-07T14:03:53.789Z,52.43
2023-01-07T14:06:21.159Z,54.50
2023-01-07T14:08:50.785Z,69.37
2023-01-07T14:11:30.344Z,92.50
2023-01-07T14:14:08.203Z,108.30
2023-01-07T14:17:00.129Z,116.73
2023-01-07T14:19:39.862Z,82.60
2023-01-07T14:22:27.840Z,77.57
2023-01-07T14:25:42.235Z,75.62
2023-01-07T14:28:39.615Z,72.87
2023-01-07T14:31:21.077Z,89.97
2023-01-07T14:33:51.972Z,86.80
2023-01-07T14:36:19.894Z,90.00
2023-01-07T14:38:57.542Z,92.23
2023-01-07T14:41:25.925Z,96.33
2023-01-07T14:44:05.711Z,96.40
2023-01-07T14:46:44.196Z,94.00
2023-01-07T14:49:14.660Z,88.07
2023-01-07T14:51:56.565Z,89.33
2023-01-07T14:54:33.052Z,89.80
2023-01-07T14:57:11.038Z,78.90
2023-01-07T14:59:53.481Z,69.70
2023-01-07T15:03:00.920Z,65.00
2023-01-07T15:05:44.592Z,59.77
2023-01-07T15:08:37.381Z,56.23
2023-01-07T15:11:41.481Z,54.53
2023-01-07T15:14:46.210Z,54.30
2023-01-07T15:17:15.660Z,62.93
2023-01-07T15:19:44.499Z,57.03
2023-01-07T15:22:23.973Z,55.58
2023-01-07T15:25:16.080Z,58.67
2023-01-07T15:28:04.978Z,68.77
2023-01-07T15:31:01.927Z,63.30
2023-01-07T15:34:10.106Z,61.17
2023-01-07T15:36:50.241Z,70.60
2023-01-07T15:39:28.356Z,76.33
2023-01-07T15:41:57.950Z,84.60
2023-01-07T15:47:39.259Z,70.67
2023-01-07T15:50:27.342Z,69.28
2023-01-07T15:53:00.220Z,66.37
2023-01-07T15:55:36.549Z,52.90
2023-01-07T15:58:13.268Z,54.73
2023-01-07T16:00:41.230Z,50.03
2023-01-07T16:03:16.213Z,51.20
2023-01-07T16:05:44.331Z,51.23
2023-01-07T16:08:30.024Z,69.60
2023-01-07T16:11:22.400Z,71.73
2023-01-07T16:13:57.965Z,75.00
2023-01-07T16:16:26.371Z,88.53
2023-01-07T16:18:55.807Z,110.30
2023-01-07T16:21:27.380Z,105.32
2023-01-07T16:23:55.531Z,87.20
2023-01-07T16:26:37.810Z,85.93
2023-01-07T16:29:20.691Z,114.47
2023-01-07T16:31:48.733Z,99.60
2023-01-07T16:34:39.069Z,95.10
2023-01-07T16:37:15.562Z,89.43
2023-01-07T16:39:47.510Z,85.47
2023-01-07T16:42:27.631Z,66.60
2023-01-07T16:44:55.399Z,49.00
2023-01-07T16:47:32.853Z,121.77
2023-01-07T16:50:16.184Z,147.53
2023-01-07T16:52:55.007Z,154.03
2023-01-07T16:55:44.654Z,150.98
2023-01-07T16:58:36.602Z,126.10
2023-01-07T17:01:05.411Z,115.60
2023-01-07T17:03:49.659Z,88.55
2023-01-07T17:06:23.113Z,77.80
2023-01-07T17:08:53.079Z,94.03
2023-01-07T17:11:26.961Z,103.57
2023-01-07T17:13:54.385Z,76.47
2023-01-07T17:16:32.628Z,62.23
2023-01-07T17:19:23.860Z,49.87
2023-01-07T17:21:53.545Z,38.93
2023-01-07T17:24:28.036Z,75.47
2023-01-07T17:27:00.190Z,81.63
2023-01-07T17:29:39.487Z,52.90
2023-01-07T17:32:07.325Z,55.53
2023-01-07T17:34:34.721Z,77.80
2023-01-07T17:37:02.034Z,72.60
2023-01-07T17:39:29.777Z,104.17
2023-01-07T17:42:16.038Z,139.83
2023-01-07T17:44:43.793Z,130.27
2023-01-07T17:47:11.510Z,131.93
2023-01-07T17:49:38.987Z,107.40
2023-01-07T17:52:06.707Z,108.17
2023-01-07T17:54:34.240Z,135.83
2023-01-07T17:57:01.633Z,127.03
2023-01-07T17:59:30.568Z,117.20
2023-01-07T18:01:59.302Z,116.30
2023-01-07T18:04:27.115Z,101.43
2023-01-07T18:06:54.614Z,95.97
2023-01-07T18:09:21.838Z,73.77
2023-01-07T18:12:08.489Z,53.90
2023-01-07T18:14:35.970Z,49.97
2023-01-07T18:17:05.000Z,61.83
2023-01-07T18:19:32.332Z,129.23
2023-01-07T18:21:59.909Z,62.57
2023-01-07T18:24:27.600Z,78.47
2023-01-07T18:26:56.514Z,94.17
2023-01-07T18:29:24.239Z,91.35
2023-01-07T18:31:52.008Z,100.63
2023-01-07T18:34:19.348Z,104.27
2023-01-07T18:36:46.929Z,101.67
2023-01-07T18:39:20.509Z,97.20
2023-01-07T18:41:51.546Z,111.43
2023-01-07T18:44:20.634Z,107.80
2023-01-07T18:46:48.662Z,99.22
2023-01-07T18:49:17.283Z,89.32
2023-01-07T18:51:47.143Z,90.63
2023-01-07T18:54:16.504Z,87.60
2023-01-07T18:56:46.301Z,78.10
2023-01-07T18:59:16.851Z,74.70
2023-01-07T19:01:44.352Z,63.60
2023-01-07T19:04:12.149Z,60.70
2023-01-07T19:06:40.631Z,59.58
2023-01-07T19:09:08.850Z,58.83
2023-01-07T19:11:38.606Z,42.67
2023-01-07T19:14:06.355Z,24.23
2023-01-07T19:16:33.999Z,24.03
2023-01-07T19:19:01.542Z,34.23
2023-01-07T19:21:29.160Z,48.00
2023-01-07T19:23:56.494Z,58.87
2023-01-07T19:26:23.903Z,48.63
2023-01-07T19:28:51.693Z,53.90
2023-01-07T19:31:19.095Z,53.53
2023-01-07T19:33:46.558Z,54.20
2023-01-07T19:36:15.811Z,50.43
2023-01-07T19:38:47.382Z,42.33
2023-01-07T19:41:17.498Z,63.93
2023-01-07T19:43:46.631Z,61.00
2023-01-07T19:46:17.119Z,53.15
2023-01-07T19:48:47.537Z,54.27
2023-01-07T19:51:15.004Z,57.37
2023-01-07T19:53:43.487Z,47.30
2023-01-07T19:56:20.244Z,37.60
2023-01-07T20:02:58.204Z,28.77
2023-01-07T20:06:27.374Z,29.90
2023-01-07T20:09:40.487Z,35.20
2023-01-07T20:16:44.853Z,37.00
2023-01-07T20:43:59.693Z,38.87
2023-01-07T20:47:18.607Z,42.63
2023-01-07T20:55:00.676Z,38.33
2023-01-07T20:57:51.478Z,58.57
2023-01-07T21:01:37.275Z,73.27
2023-01-07T21:05:29.276Z,112.00
2023-01-07T21:09:20.087Z,65.30
2023-01-07T21:13:00.814Z,34.10
2023-01-07T21:19:47.401Z,54.10
2023-01-07T21:22:17.960Z,33.43
2023-01-07T21:25:01.270Z,37.43
2023-01-07T21:28:25.835Z,37.40
2023-01-07T21:31:39.626Z,20.87
2023-01-07T21:35:14.853Z,36.23
2023-01-07T21:42:31.718Z,26.37
2023-01-07T21:45:30.327Z,20.20
2023-01-07T21:48:49.153Z,18.87
2023-01-07T21:51:48.712Z,17.63
2023-01-07T21:54:54.691Z,70.10
2023-01-07T21:57:56.161Z,93.70
2023-01-07T22:00:59.952Z,83.90
2023-01-07T22:03:32.074Z,56.63
2023-01-07T22:14:19.996Z,67.27
2023-01-07T22:17:30.399Z,62.43
2023-01-07T22:24:33.104Z,53.33
2023-01-07T22:27:22.923Z,48.92
2023-01-07T22:34:08.710Z,32.17
2023-01-07T22:40:43.821Z,29.35
2023-01-07T22:43:55.931Z,22.58
2023-01-07T22:50:51.448Z,23.65
2023-01-07T22:53:58.702Z,32.53
2023-01-07T22:56:37.673Z,34.38
2023-01-07T22:59:13.110Z,36.27
2023-01-07T23:01:55.539Z,29.87
2023-01-07T23:04:35.321Z,25.95
2023-01-07T23:07:35.506Z,30.70
2023-01-07T23:10:27.858Z,33.95
2023-01-07T23:16:31.438Z,53.72
2023-01-07T23:22:35.704Z,34.55
2023-01-07T23:25:45.905Z,27.42
2023-01-07T23:28:41.800Z,25.73
2023-01-07T23:31:17.344Z,26.87
2023-01-07T23:34:15.763Z,28.67
2023-01-07T23:37:11.276Z,30.55
2023-01-07T23:40:22.440Z,27.98
2023-01-07T23:42:55.792Z,29.40
2023-01-07T23:45:24.414Z,31.20
2023-01-07T23:47:52.056Z,34.22
2023-01-07T23:50:19.425Z,35.00
2023-01-07T23:52:47.889Z,32.88
2023-01-07T23:55:15.634Z,60.05
2023-01-07T23:57:43.028Z,57.78
